Terminal Aerodrome Forecast
Issued by NWS Pocatello, ID

Home | Current Version | Previous Version | Text Only | Print | Product List | Glossary On
Versions: 1 2 3 4 5 6 7 8 9 10 11 12 13 14 15 16 17 18 19
000
FTUS45 KPIH 241729
TAFPIH
TAF
KPIH 241729Z 2418/2518 19012G22KT 6SM -SN SCT025 OVC040
      TEMPO 2418/2419 3SM -SN BKN025
     FM242100 22020G30KT 2SM -SN BLSN SCT010 OVC020
     FM250300 22018KT 6SM BLSN SCT020 OVC035
     FM251600 22022G32KT 4SM BLSN SCT015 BKN100=

USA.gov is the U.S. government's official web portal to all federal, state and local government web resources and services.